Time;durP1;ratioP1;P1;durP2;ratioP2;P2;SDS_P1;SDS_P2;PMS_P1;PMS_P2;Temp;Humidity;BMP_temperature;BMP_pressure;BME280_temperature;BME280_humidity;BME280_pressure;Samples;Min_cycle;Max_cycle;Signal;HPM_P1;HPM_P2
2023/06/11 00:03:33;;;;;;;7.88;3.92;;;21.30;84.00;;;;;;7843171;28;20193;-91
2023/06/11 00:07:19;;;;;;;10.90;4.88;;;21.20;83.80;;;;;;7847119;28;20186;-91
2023/06/11 00:11:05;;;;;;;6.22;4.05;;;21.20;84.00;;;;;;7854027;28;20201;-90
2023/06/11 00:14:50;;;;;;;5.40;3.75;;;21.10;84.10;;;;;;7842186;28;20240;-90
2023/06/11 00:18:40;;;;;;;6.85;4.22;;;21.00;84.10;;;;;;7831686;28;20186;-89
2023/06/11 00:22:26;;;;;;;8.18;4.03;;;21.00;84.20;;;;;;7843023;28;20210;-90
2023/06/11 00:26:12;;;;;;;5.93;3.53;;;21.00;84.70;;;;;;7841662;28;20239;-89
2023/06/11 00:30:01;;;;;;;5.25;4.18;;;20.90;84.70;;;;;;7837983;28;20189;-90
2023/06/11 00:33:46;;;;;;;5.75;3.45;;;20.80;84.50;;;;;;7842860;28;20292;-90
2023/06/11 00:37:34;;;;;;;5.22;3.58;;;20.80;84.30;;;;;;7841061;28;20197;-89
2023/06/11 00:41:24;;;;;;;7.22;3.83;;;20.70;84.80;;;;;;7838378;28;20236;-90
2023/06/11 00:45:11;;;;;;;4.70;3.85;;;20.70;84.90;;;;;;7841447;28;20186;-90
2023/06/11 00:48:56;;;;;;;8.55;3.95;;;20.70;85.00;;;;;;7851927;28;20196;-90
2023/06/11 00:52:43;;;;;;;8.20;4.00;;;20.60;85.30;;;;;;7846794;28;20210;-90
2023/06/11 00:56:29;;;;;;;4.25;3.53;;;20.60;85.40;;;;;;7810386;28;20695;-90
2023/06/11 01:00:15;;;;;;;7.55;3.45;;;20.50;85.30;;;;;;7809986;28;20179;-90
2023/06/11 01:04:05;;;;;;;6.57;3.58;;;20.50;85.60;;;;;;7836288;28;20274;-90
2023/06/11 01:07:55;;;;;;;7.53;3.70;;;20.40;85.30;;;;;;7841414;28;20178;-90
2023/06/11 01:11:41;;;;;;;6.88;3.53;;;20.30;85.20;;;;;;7840548;28;20202;-90
2023/06/11 01:15:26;;;;;;;5.20;3.58;;;20.30;85.20;;;;;;7838459;28;20205;-89
2023/06/11 01:19:31;;;;;;;10.98;3.55;;;20.20;85.20;;;;;;7840071;28;20268;-90
2023/06/11 01:23:55;;;;;;;4.50;3.53;;;20.10;85.60;;;;;;7840049;28;20744;-89
2023/06/11 01:28:03;;;;;;;6.38;3.75;;;20.10;85.70;;;;;;7838301;28;20268;-90
2023/06/11 01:31:50;;;;;;;6.32;3.42;;;20.00;85.80;;;;;;7839906;28;20221;-89
2023/06/11 01:35:36;;;;;;;7.97;3.72;;;19.90;85.90;;;;;;7838977;28;20194;-90
2023/06/11 01:39:21;;;;;;;6.35;3.45;;;19.90;86.10;;;;;;7839620;28;20181;-90
2023/06/11 01:43:07;;;;;;;5.78;3.40;;;19.80;86.00;;;;;;7839641;28;20205;-90
2023/06/11 01:46:53;;;;;;;5.75;3.33;;;19.70;86.10;;;;;;7838943;28;20200;-90
2023/06/11 01:50:38;;;;;;;5.22;3.42;;;19.60;86.10;;;;;;7839707;28;20196;-91
2023/06/11 01:54:25;;;;;;;7.57;3.83;;;19.60;86.30;;;;;;7840413;28;20705;-91
2023/06/11 01:58:12;;;;;;;7.75;3.40;;;19.50;86.20;;;;;;7838775;28;20197;-90
2023/06/11 02:01:57;;;;;;;7.07;3.25;;;19.50;86.40;;;;;;7840401;28;20206;-90
2023/06/11 02:05:44;;;;;;;4.03;3.33;;;19.40;86.30;;;;;;7844300;28;20203;-90
2023/06/11 02:09:29;;;;;;;9.73;3.83;;;19.30;86.60;;;;;;7839600;28;20655;-90
2023/06/11 02:13:15;;;;;;;6.05;3.65;;;19.30;86.60;;;;;;7840336;28;20609;-90
2023/06/11 02:17:01;;;;;;;7.75;3.55;;;19.20;86.60;;;;;;7837760;28;20209;-90
2023/06/11 02:20:46;;;;;;;6.18;3.80;;;19.20;86.70;;;;;;7837763;28;20213;-90
2023/06/11 02:24:32;;;;;;;8.82;3.90;;;19.10;86.90;;;;;;7838585;28;20170;-90
2023/06/11 02:28:17;;;;;;;8.38;3.70;;;19.10;86.90;;;;;;7837786;28;20581;-90
2023/06/11 02:32:07;;;;;;;5.65;3.60;;;19.00;86.90;;;;;;7843914;28;20212;-90
2023/06/11 02:35:52;;;;;;;7.68;3.15;;;19.00;87.00;;;;;;7867971;28;20742;-90
2023/06/11 02:39:38;;;;;;;6.63;4.10;;;18.90;87.10;;;;;;7838492;28;20594;-90
2023/06/11 02:43:24;;;;;;;5.95;3.88;;;18.80;87.10;;;;;;7847836;28;20705;-90
2023/06/11 02:47:09;;;;;;;7.30;4.10;;;18.80;87.40;;;;;;7839074;28;20185;-90
2023/06/11 02:50:55;;;;;;;4.85;3.38;;;18.80;87.40;;;;;;7852921;28;20201;-90
2023/06/11 02:54:41;;;;;;;8.63;4.20;;;18.70;87.50;;;;;;7837331;28;20540;-90
2023/06/11 02:58:26;;;;;;;5.72;3.55;;;18.60;87.50;;;;;;7837338;28;20185;-90
2023/06/11 03:02:12;;;;;;;6.97;3.65;;;18.60;87.60;;;;;;7837460;28;20194;-90
2023/06/11 03:05:57;;;;;;;5.70;3.42;;;18.60;87.90;;;;;;7837017;28;20181;-90
2023/06/11 03:09:43;;;;;;;4.55;3.33;;;18.50;87.80;;;;;;7836807;28;20193;-90
2023/06/11 03:13:29;;;;;;;4.93;3.30;;;18.50;88.00;;;;;;7837434;28;20683;-90
2023/06/11 03:17:14;;;;;;;3.90;3.10;;;18.40;88.00;;;;;;7834791;28;20693;-90
2023/06/11 03:21:00;;;;;;;5.97;3.50;;;18.40;88.10;;;;;;7837224;28;20245;-89
2023/06/11 03:24:46;;;;;;;5.90;3.42;;;18.40;88.30;;;;;;7838528;28;20170;-90
2023/06/11 03:28:31;;;;;;;4.65;3.83;;;18.30;88.50;;;;;;7836358;28;20186;-90
2023/06/11 03:32:17;;;;;;;6.95;3.78;;;18.30;88.50;;;;;;7839513;28;20248;-90
2023/06/11 03:36:04;;;;;;;5.72;3.75;;;18.30;88.50;;;;;;7843353;28;20202;-90
2023/06/11 03:39:50;;;;;;;7.97;3.63;;;18.30;89.40;;;;;;7818759;28;20189;-91
2023/06/11 03:43:36;;;;;;;8.27;3.60;;;18.20;88.50;;;;;;7812382;28;20256;-90
2023/06/11 03:47:22;;;;;;;9.35;3.72;;;18.20;88.60;;;;;;7811427;28;20182;-90
2023/06/11 03:51:07;;;;;;;5.20;3.85;;;18.20;88.80;;;;;;7840783;28;20202;-90
2023/06/11 03:54:53;;;;;;;4.85;3.60;;;18.20;88.80;;;;;;7844108;28;20324;-90
2023/06/11 03:58:38;;;;;;;5.43;3.40;;;18.10;88.90;;;;;;7842434;28;20240;-90
2023/06/11 04:02:26;;;;;;;9.90;4.05;;;18.10;89.20;;;;;;7828075;28;20210;-90
2023/06/11 04:06:11;;;;;;;6.10;3.55;;;18.10;89.40;;;;;;7812730;28;20262;-90
2023/06/11 04:09:57;;;;;;;4.88;3.70;;;18.00;89.50;;;;;;7835832;28;20243;-90
2023/06/11 04:13:49;;;;;;;7.07;3.40;;;18.00;89.70;;;;;;7824011;28;20293;-90
2023/06/11 04:17:34;;;;;;;5.22;3.97;;;18.00;89.60;;;;;;7869787;28;20209;-90
2023/06/11 04:21:20;;;;;;;5.80;3.70;;;17.90;89.60;;;;;;7854159;28;20224;-90
2023/06/11 04:25:06;;;;;;;5.35;3.70;;;17.90;90.00;;;;;;7842243;28;20678;-90
2023/06/11 04:28:56;;;;;;;9.65;3.92;;;17.90;90.00;;;;;;7842152;28;20189;-90
2023/06/11 04:32:54;;;;;;;7.03;4.13;;;17.90;90.00;;;;;;7841845;28;20289;-90
2023/06/11 04:36:57;;;;;;;7.57;3.95;;;17.90;90.00;;;;;;7839281;28;20202;-90
2023/06/11 04:40:43;;;;;;;4.40;3.65;;;17.90;90.00;;;;;;7841721;28;20391;-90
2023/06/11 04:44:47;;;;;;;4.93;3.50;;;17.80;89.90;;;;;;7830288;28;20189;-90
2023/06/11 04:48:33;;;;;;;8.73;4.03;;;17.90;90.00;;;;;;7838744;28;20185;-90
2023/06/11 04:52:21;;;;;;;4.65;3.30;;;17.80;89.90;;;;;;7841140;28;20198;-90
2023/06/11 04:56:18;;;;;;;8.00;3.22;;;17.80;89.50;;;;;;7842012;28;20197;-90
2023/06/11 05:00:08;;;;;;;7.68;3.75;;;17.80;89.20;;;;;;7834220;28;20520;-90
2023/06/11 05:03:53;;;;;;;10.23;3.67;;;17.70;89.10;;;;;;7839714;28;20178;-91
2023/06/11 05:07:41;;;;;;;4.95;3.50;;;17.70;89.20;;;;;;7847616;28;20218;-91
2023/06/11 05:11:34;;;;;;;8.00;3.92;;;17.70;89.40;;;;;;7847883;28;20556;-90
2023/06/11 05:15:22;;;;;;;17.42;4.00;;;17.70;89.60;;;;;;7829719;28;20217;-90
2023/06/11 05:19:08;;;;;;;4.30;3.35;;;17.70;89.70;;;;;;7840136;28;20170;-90
2023/06/11 05:22:58;;;;;;;4.57;3.80;;;17.70;89.60;;;;;;7840692;28;20221;-90
2023/06/11 05:26:44;;;;;;;7.07;3.70;;;17.70;89.00;;;;;;7826619;28;20609;-90
2023/06/11 05:30:39;;;;;;;7.30;3.63;;;17.70;88.80;;;;;;7850336;28;20274;-89
2023/06/11 05:34:25;;;;;;;9.73;3.60;;;17.60;89.00;;;;;;7840380;28;20180;-90
2023/06/11 05:38:11;;;;;;;7.20;3.88;;;17.70;88.70;;;;;;7839917;28;20202;-90
2023/06/11 05:41:57;;;;;;;5.32;3.75;;;17.80;89.10;;;;;;7839777;28;20209;-90
2023/06/11 05:45:49;;;;;;;7.13;3.85;;;17.90;88.40;;;;;;7839712;28;20174;-90
2023/06/11 05:49:35;;;;;;;4.82;3.65;;;18.00;88.30;;;;;;7839310;28;20188;-90
2023/06/11 05:53:21;;;;;;;6.47;3.67;;;18.10;87.70;;;;;;7833083;28;20651;-91
2023/06/11 05:57:32;;;;;;;5.53;3.65;;;18.20;86.70;;;;;;7837670;28;20228;-91
2023/06/11 06:01:18;;;;;;;10.15;4.43;;;18.40;85.70;;;;;;7866605;28;20196;-91
2023/06/11 06:05:04;;;;;;;9.40;4.20;;;18.50;84.50;;;;;;7850877;28;20691;-90
2023/06/11 06:08:50;;;;;;;9.60;4.57;;;18.60;83.50;;;;;;7839286;28;20209;-90
2023/06/11 06:12:36;;;;;;;7.35;4.40;;;18.80;84.00;;;;;;7839064;28;20209;-90
2023/06/11 06:16:21;;;;;;;6.63;4.63;;;19.00;84.30;;;;;;7838514;28;20252;-91
2023/06/11 06:20:09;;;;;;;8.18;4.43;;;19.10;83.00;;;;;;7838923;28;20181;-90
2023/06/11 06:23:55;;;;;;;10.50;4.60;;;19.30;82.50;;;;;;7838430;28;20244;-90
2023/06/11 06:27:40;;;;;;;8.05;4.32;;;19.50;81.30;;;;;;7839450;28;20205;-91
2023/06/11 06:31:27;;;;;;;6.32;4.85;;;19.80;82.00;;;;;;7838607;28;20562;-91
2023/06/11 06:35:13;;;;;;;9.80;4.65;;;20.00;80.70;;;;;;7837813;28;20202;-91
2023/06/11 06:38:59;;;;;;;8.07;4.75;;;20.10;80.70;;;;;;7839247;28;20169;-90
2023/06/11 06:42:50;;;;;;;10.10;4.38;;;20.30;81.10;;;;;;7839441;28;20298;-91
2023/06/11 06:46:36;;;;;;;9.30;4.50;;;20.50;79.00;;;;;;7849795;28;20190;-92
2023/06/11 06:50:22;;;;;;;12.63;4.63;;;20.50;78.40;;;;;;7840242;28;20260;-90
2023/06/11 06:54:07;;;;;;;10.13;4.43;;;20.60;80.40;;;;;;7838135;28;20178;-90
2023/06/11 06:57:53;;;;;;;6.65;4.47;;;20.80;81.00;;;;;;7837991;28;20198;-90
2023/06/11 07:01:44;;;;;;;10.93;4.45;;;21.00;79.80;;;;;;7841504;28;20671;-90
2023/06/11 07:05:29;;;;;;;11.02;4.55;;;21.20;79.30;;;;;;7867007;28;20188;-91
2023/06/11 07:09:15;;;;;;;5.25;4.10;;;21.40;78.70;;;;;;7851319;28;20189;-91
2023/06/11 07:13:01;;;;;;;7.50;4.43;;;21.60;79.80;;;;;;7837256;28;20198;-91
2023/06/11 07:16:46;;;;;;;7.80;4.95;;;21.70;78.20;;;;;;7838804;28;20210;-91
2023/06/11 07:20:33;;;;;;;9.20;4.45;;;21.90;78.70;;;;;;7841182;28;20222;-91
2023/06/11 07:24:20;;;;;;;11.68;5.28;;;22.00;78.20;;;;;;7839983;28;20232;-91
2023/06/11 07:28:06;;;;;;;7.03;4.55;;;22.10;77.00;;;;;;7837606;28;20217;-92
2023/06/11 07:31:51;;;;;;;6.88;4.60;;;22.20;77.50;;;;;;7835635;28;20240;-91
2023/06/11 07:35:37;;;;;;;6.43;4.47;;;22.20;79.10;;;;;;7837321;28;20290;-92
2023/06/11 07:39:23;;;;;;;7.68;4.90;;;22.30;79.40;;;;;;7837253;28;20182;-90
2023/06/11 07:43:22;;;;;;;10.23;5.18;;;22.50;80.60;;;;;;7838455;28;20202;-91
2023/06/11 07:47:13;;;;;;;10.50;5.32;;;22.70;79.20;;;;;;7860424;28;20182;-91
2023/06/11 07:50:59;;;;;;;10.52;4.78;;;22.90;80.80;;;;;;7836788;28;20566;-91
2023/06/11 07:54:45;;;;;;;9.65;5.20;;;23.00;78.80;;;;;;7836423;28;20174;-91
2023/06/11 07:58:31;;;;;;;7.22;5.25;;;23.00;79.70;;;;;;7836612;28;20198;-89
2023/06/11 08:02:17;;;;;;;6.22;4.95;;;23.20;80.10;;;;;;7836154;28;20202;-91
2023/06/11 08:06:02;;;;;;;14.73;5.40;;;23.40;80.20;;;;;;7837488;28;20538;-91
2023/06/11 08:09:48;;;;;;;5.70;4.90;;;23.40;80.50;;;;;;7851175;28;20262;-91
2023/06/11 08:13:34;;;;;;;5.93;5.18;;;23.60;81.40;;;;;;7840783;28;20198;-90
2023/06/11 08:17:20;;;;;;;7.35;5.20;;;23.70;79.70;;;;;;7846639;28;20210;-91
2023/06/11 08:21:06;;;;;;;8.50;5.00;;;23.80;79.90;;;;;;7842407;28;20220;-91
2023/06/11 08:24:51;;;;;;;6.72;5.50;;;23.90;80.00;;;;;;7842765;28;20185;-91
2023/06/11 08:28:37;;;;;;;6.05;5.22;;;23.90;80.90;;;;;;7845322;28;20178;-92
2023/06/11 08:32:23;;;;;;;7.40;5.15;;;24.00;81.40;;;;;;7844154;28;20198;-90
2023/06/11 08:36:09;;;;;;;7.95;5.13;;;24.10;80.00;;;;;;7834454;28;20267;-91
2023/06/11 08:39:55;;;;;;;7.90;5.05;;;24.30;80.80;;;;;;7841912;28;20205;-91
2023/06/11 08:43:40;;;;;;;8.80;5.32;;;24.40;79.80;;;;;;7841718;28;20604;-90
2023/06/11 08:47:30;;;;;;;11.75;5.13;;;24.50;79.50;;;;;;7841322;28;20831;-91
2023/06/11 08:51:17;;;;;;;5.93;5.18;;;24.40;77.50;;;;;;7832473;28;20241;-91
2023/06/11 08:55:03;;;;;;;7.40;5.13;;;24.20;77.80;;;;;;7810480;28;20842;-91
2023/06/11 08:58:49;;;;;;;9.63;5.28;;;24.20;80.00;;;;;;7810382;28;20174;-91
2023/06/11 09:02:36;;;;;;;10.25;5.05;;;24.10;78.40;;;;;;7826511;28;20683;-91
2023/06/11 09:06:21;;;;;;;7.57;5.25;;;24.20;77.60;;;;;;7841372;28;20204;-92
2023/06/11 09:10:09;;;;;;;5.78;5.20;;;24.00;75.90;;;;;;7840291;28;20189;-87
2023/06/11 09:13:55;;;;;;;7.50;5.30;;;23.90;76.70;;;;;;7839679;28;20182;-92
2023/06/11 09:17:42;;;;;;;9.00;5.00;;;23.80;76.10;;;;;;7841896;28;20252;-92
2023/06/11 09:21:28;;;;;;;10.63;4.75;;;23.80;75.20;;;;;;7842975;28;20793;-91
2023/06/11 09:25:17;;;;;;;7.30;5.13;;;23.90;73.70;;;;;;7851076;28;20305;-92
2023/06/11 09:29:05;;;;;;;8.27;5.13;;;24.00;72.60;;;;;;7870862;28;20227;-91
2023/06/11 09:32:50;;;;;;;9.77;4.78;;;24.00;73.30;;;;;;7844307;28;20633;-91
2023/06/11 09:36:37;;;;;;;8.02;5.28;;;24.20;73.10;;;;;;7840654;28;20271;-92
2023/06/11 09:40:23;;;;;;;8.52;5.22;;;24.30;72.90;;;;;;7841626;28;20213;-90
2023/06/11 09:44:08;;;;;;;8.05;5.18;;;24.50;74.50;;;;;;7834397;28;20209;-91
2023/06/11 09:47:54;;;;;;;5.60;5.05;;;24.70;76.00;;;;;;7811954;28;20233;-91
2023/06/11 09:51:41;;;;;;;7.55;5.22;;;24.80;75.60;;;;;;7812798;28;20213;-91
2023/06/11 09:55:27;;;;;;;6.38;5.72;;;24.70;74.20;;;;;;7822603;28;20224;-91
2023/06/11 09:59:17;;;;;;;6.47;5.10;;;24.80;74.30;;;;;;7839464;28;20785;-91
2023/06/11 10:03:04;;;;;;;12.77;5.43;;;24.70;74.00;;;;;;7839612;28;20243;-91
2023/06/11 10:06:50;;;;;;;9.30;5.45;;;24.80;74.10;;;;;;7832676;28;20232;-92
2023/06/11 10:10:41;;;;;;;10.18;4.80;;;25.00;73.80;;;;;;7808047;28;20217;-92
2023/06/11 10:14:26;;;;;;;6.78;5.07;;;24.80;71.50;;;;;;7825889;28;20663;-92
2023/06/11 10:18:13;;;;;;;11.30;5.20;;;24.80;72.40;;;;;;7827463;28;20568;-91
2023/06/11 10:22:01;;;;;;;12.13;5.03;;;24.80;72.70;;;;;;7839667;28;20750;-91
2023/06/11 10:25:54;;;;;;;6.25;4.85;;;24.90;72.00;;;;;;7840197;28;20174;-91
2023/06/11 10:29:42;;;;;;;9.32;4.95;;;25.00;71.50;;;;;;7839806;28;20181;-92
2023/06/11 10:33:44;;;;;;;11.32;5.00;;;25.10;70.70;;;;;;7839019;28;20209;-91
2023/06/11 10:37:37;;;;;;;5.30;4.80;;;25.10;70.90;;;;;;7838270;28;20194;-91
2023/06/11 10:41:35;;;;;;;7.72;5.30;;;25.20;70.20;;;;;;7838528;28;20201;-91
2023/06/11 10:45:31;;;;;;;7.35;4.95;;;25.20;70.20;;;;;;7822214;28;20709;-91
2023/06/11 10:49:21;;;;;;;7.55;5.50;;;25.20;69.90;;;;;;7851578;28;20165;-92
2023/06/11 10:53:15;;;;;;;7.65;5.03;;;25.30;68.60;;;;;;7830873;28;20214;-92
2023/06/11 10:57:05;;;;;;;5.50;4.90;;;25.50;70.80;;;;;;7824047;28;20252;-91
2023/06/11 11:00:52;;;;;;;6.43;5.20;;;25.50;70.50;;;;;;7827072;28;20202;-92
2023/06/11 11:04:52;;;;;;;8.00;5.13;;;25.70;71.20;;;;;;7838337;28;20694;-91
2023/06/11 11:08:37;;;;;;;6.13;5.40;;;25.60;69.10;;;;;;7858091;28;20166;-90
2023/06/11 11:12:23;;;;;;;6.95;5.05;;;25.60;68.30;;;;;;7873070;28;20228;-91
2023/06/11 11:16:09;;;;;;;8.05;4.88;;;25.60;68.60;;;;;;7849454;28;20202;-91
2023/06/11 11:19:54;;;;;;;8.73;5.07;;;25.60;68.10;;;;;;7839530;28;20178;-92
2023/06/11 11:23:40;;;;;;;5.95;4.93;;;25.40;68.80;;;;;;7837290;28;20829;-91
2023/06/11 11:27:27;;;;;;;9.30;5.35;;;25.40;68.90;;;;;;7838290;28;20598;-91
2023/06/11 11:31:17;;;;;;;10.30;6.05;;;25.50;68.00;;;;;;7837398;28;20303;-91
2023/06/11 11:35:04;;;;;;;6.47;5.28;;;25.50;67.80;;;;;;7836770;28;20265;-91
2023/06/11 11:38:50;;;;;;;5.97;5.10;;;25.60;68.10;;;;;;7837027;28;20777;-91
2023/06/11 11:42:55;;;;;;;6.50;5.75;;;25.60;67.70;;;;;;7837082;28;20735;-91
2023/06/11 11:46:41;;;;;;;6.32;5.35;;;25.60;67.40;;;;;;7836641;28;20651;-91
2023/06/11 11:50:31;;;;;;;6.57;5.30;;;25.70;66.40;;;;;;7836680;28;20564;-91
2023/06/11 11:54:18;;;;;;;11.60;6.10;;;25.80;66.60;;;;;;7841294;28;20174;-91
2023/06/11 11:58:07;;;;;;;6.18;5.57;;;25.70;65.10;;;;;;7843209;28;20225;-91
2023/06/11 12:01:57;;;;;;;12.73;5.40;;;25.70;65.20;;;;;;7842799;28;20798;-91
2023/06/11 12:05:43;;;;;;;6.32;5.53;;;25.80;65.80;;;;;;7843611;28;20596;-91
2023/06/11 12:09:29;;;;;;;6.55;5.70;;;26.00;66.10;;;;;;7842214;28;20189;-91
2023/06/11 12:13:14;;;;;;;6.25;5.55;;;26.00;65.50;;;;;;7842791;28;20209;-91
2023/06/11 12:17:00;;;;;;;8.20;5.28;;;26.10;63.30;;;;;;7842125;28;20211;-91
2023/06/11 12:20:46;;;;;;;9.95;4.97;;;26.20;64.10;;;;;;7843615;28;20217;-91
2023/06/11 12:24:36;;;;;;;6.43;5.78;;;26.20;64.70;;;;;;7842694;28;20174;-91
2023/06/11 12:28:21;;;;;;;6.18;5.57;;;26.20;62.00;;;;;;7842474;28;20185;-91
2023/06/11 12:32:18;;;;;;;6.20;5.60;;;26.20;61.30;;;;;;7841526;28;20198;-91
2023/06/11 12:36:03;;;;;;;8.45;5.72;;;26.30;61.90;;;;;;7842282;28;20201;-91
2023/06/11 12:39:49;;;;;;;9.25;5.30;;;26.40;64.10;;;;;;7841582;28;20182;-91
2023/06/11 12:43:35;;;;;;;10.05;6.05;;;26.50;63.80;;;;;;7832743;28;20242;-91
2023/06/11 12:47:20;;;;;;;6.40;5.35;;;26.50;63.50;;;;;;7833082;28;20182;-91
2023/06/11 12:51:06;;;;;;;9.63;5.90;;;26.60;62.10;;;;;;7856635;28;20201;-92
2023/06/11 12:54:53;;;;;;;9.85;5.57;;;26.60;62.00;;;;;;7866124;28;20190;-91
2023/06/11 12:58:39;;;;;;;5.75;5.18;;;26.60;60.20;;;;;;7841444;28;20209;-91
2023/06/11 13:02:25;;;;;;;6.28;5.53;;;26.50;61.60;;;;;;7841302;28;20209;-91
2023/06/11 13:06:11;;;;;;;8.45;5.30;;;26.40;61.00;;;;;;7840370;28;20182;-91
2023/06/11 13:09:57;;;;;;;5.53;4.93;;;26.30;61.30;;;;;;7840792;28;20185;-91
2023/06/11 13:13:42;;;;;;;7.45;5.28;;;26.40;60.90;;;;;;7839541;28;20201;-91
2023/06/11 13:17:28;;;;;;;6.03;5.43;;;26.50;61.40;;;;;;7842165;28;20285;-90
2023/06/11 13:21:17;;;;;;;5.88;5.22;;;26.50;60.80;;;;;;7824914;28;20308;-91
2023/06/11 13:25:04;;;;;;;7.45;5.05;;;26.50;59.40;;;;;;7835402;28;20173;-90
2023/06/11 13:28:50;;;;;;;8.18;5.50;;;26.50;59.60;;;;;;7831473;28;20204;-90
2023/06/11 13:32:36;;;;;;;6.00;5.38;;;26.60;60.00;;;;;;7847861;28;20212;-91
2023/06/11 13:36:22;;;;;;;7.47;5.82;;;26.60;59.50;;;;;;7840558;28;20213;-91
2023/06/11 13:40:22;;;;;;;6.40;5.60;;;26.70;59.50;;;;;;7847205;28;20174;-90
2023/06/11 13:44:08;;;;;;;6.07;5.35;;;26.80;59.20;;;;;;7844090;28;20241;-91
2023/06/11 13:47:55;;;;;;;6.50;5.47;;;26.80;58.20;;;;;;7842666;28;20182;-90
2023/06/11 13:51:41;;;;;;;8.07;5.72;;;26.80;59.00;;;;;;7843982;28;20209;-91
2023/06/11 13:55:26;;;;;;;6.38;5.60;;;26.90;57.70;;;;;;7847853;28;20198;-91
2023/06/11 13:59:12;;;;;;;7.45;5.55;;;26.70;57.20;;;;;;7845862;28;20178;-90
2023/06/11 14:02:58;;;;;;;9.93;5.78;;;26.70;57.40;;;;;;7846205;28;20197;-91
2023/06/11 14:06:43;;;;;;;8.13;5.60;;;26.70;57.80;;;;;;7840588;28;20182;-91
2023/06/11 14:10:29;;;;;;;8.07;5.28;;;26.80;58.30;;;;;;7840135;28;20267;-91
2023/06/11 14:14:14;;;;;;;8.48;5.63;;;26.80;58.30;;;;;;7840010;28;20251;-91
2023/06/11 14:18:00;;;;;;;5.50;5.00;;;26.70;58.20;;;;;;7838762;28;20197;-91
2023/06/11 14:21:46;;;;;;;9.20;5.80;;;26.70;58.30;;;;;;7840150;28;20267;-90
2023/06/11 14:25:31;;;;;;;7.30;5.18;;;26.70;56.90;;;;;;7839117;28;20177;-90
2023/06/11 14:29:17;;;;;;;9.43;5.70;;;26.70;57.20;;;;;;7838851;28;20174;-91
2023/06/11 14:33:02;;;;;;;7.40;5.80;;;26.80;58.90;;;;;;7853093;28;20249;-91
2023/06/11 14:36:48;;;;;;;6.95;5.93;;;26.90;59.80;;;;;;7864034;28;20217;-90
2023/06/11 14:40:34;;;;;;;7.18;5.50;;;26.90;59.40;;;;;;7839292;28;20889;-91
2023/06/11 14:44:21;;;;;;;8.73;5.60;;;26.90;58.50;;;;;;7833591;28;20727;-90
2023/06/11 14:48:25;;;;;;;7.45;5.72;;;27.00;59.00;;;;;;7840403;28;20181;-91
2023/06/11 14:52:10;;;;;;;6.50;5.80;;;27.10;58.70;;;;;;7838755;28;20568;-91
2023/06/11 14:55:56;;;;;;;6.88;5.50;;;27.10;59.00;;;;;;7839099;28;20231;-90
2023/06/11 14:59:43;;;;;;;6.80;5.68;;;27.10;59.20;;;;;;7838721;28;20563;-90
2023/06/11 15:03:28;;;;;;;9.00;5.82;;;27.10;59.30;;;;;;7838146;28;20198;-89
2023/06/11 15:07:14;;;;;;;6.53;5.75;;;27.10;59.00;;;;;;7829687;28;20666;-90
2023/06/11 15:11:00;;;;;;;7.18;5.60;;;27.10;59.30;;;;;;7839031;28;20712;-90
2023/06/11 15:14:46;;;;;;;6.45;5.65;;;27.20;59.60;;;;;;7836022;28;20608;-90
2023/06/11 15:18:42;;;;;;;6.07;5.47;;;27.20;59.30;;;;;;7837415;28;20209;-90
2023/06/11 15:22:28;;;;;;;6.93;5.47;;;27.20;60.00;;;;;;7836983;28;20800;-90
2023/06/11 15:26:13;;;;;;;7.22;5.63;;;27.20;59.70;;;;;;7837755;28;20288;-90
2023/06/11 15:30:00;;;;;;;8.63;6.07;;;27.10;58.70;;;;;;7837622;28;20188;-91
2023/06/11 15:33:46;;;;;;;8.05;6.07;;;27.10;59.00;;;;;;7838873;28;20198;-90
2023/06/11 15:37:31;;;;;;;7.57;6.20;;;27.20;60.00;;;;;;7837509;28;20206;-90
2023/06/11 15:41:17;;;;;;;6.85;5.97;;;27.20;59.90;;;;;;7837878;28;20663;-91
2023/06/11 15:45:06;;;;;;;9.77;5.93;;;27.10;59.30;;;;;;7841681;28;20177;-90
2023/06/11 15:48:51;;;;;;;7.93;6.40;;;27.00;59.80;;;;;;7848120;28;20180;-90
2023/06/11 15:52:37;;;;;;;7.15;6.45;;;27.10;59.90;;;;;;7839245;28;20198;-90
2023/06/11 15:56:22;;;;;;;7.15;6.03;;;27.00;58.70;;;;;;7838262;28;20283;-91
2023/06/11 16:00:09;;;;;;;6.78;5.95;;;26.90;59.30;;;;;;7828793;28;20554;-90
2023/06/11 16:03:54;;;;;;;7.57;5.97;;;26.80;60.00;;;;;;7836927;28;20182;-91
2023/06/11 16:07:40;;;;;;;8.63;6.20;;;26.90;60.10;;;;;;7837016;28;20181;-90
2023/06/11 16:11:26;;;;;;;8.18;5.80;;;27.00;61.40;;;;;;7838240;28;20213;-90
2023/06/11 16:15:12;;;;;;;8.35;6.03;;;27.10;62.40;;;;;;7849163;28;20184;-91
2023/06/11 16:18:58;;;;;;;7.75;6.32;;;27.10;62.10;;;;;;7856524;28;20192;-87
2023/06/11 16:22:43;;;;;;;7.57;6.35;;;27.10;62.40;;;;;;7837084;28;20218;-90
2023/06/11 16:26:29;;;;;;;7.50;6.30;;;27.10;61.60;;;;;;7837810;28;20521;-90
2023/06/11 16:30:15;;;;;;;12.02;6.50;;;27.00;61.40;;;;;;7838007;28;20174;-90
2023/06/11 16:34:00;;;;;;;8.85;6.28;;;27.00;61.50;;;;;;7836679;28;20178;-89
2023/06/11 16:37:46;;;;;;;6.40;5.82;;;27.00;61.80;;;;;;7836862;28;20289;-89
2023/06/11 16:41:32;;;;;;;6.80;6.10;;;27.00;61.20;;;;;;7842224;28;20194;-90
2023/06/11 16:45:17;;;;;;;11.68;6.47;;;27.00;60.20;;;;;;7842327;28;20198;-90
2023/06/11 16:49:03;;;;;;;7.85;6.05;;;27.00;60.80;;;;;;7842047;28;20186;-90
2023/06/11 16:52:51;;;;;;;8.65;6.00;;;26.90;60.40;;;;;;7842602;28;20564;-84
2023/06/11 16:56:37;;;;;;;9.52;6.03;;;26.90;60.50;;;;;;7826765;28;20225;-86
2023/06/11 17:00:23;;;;;;;7.25;6.38;;;26.90;60.50;;;;;;7827007;28;20283;-90
2023/06/11 17:04:08;;;;;;;6.53;5.63;;;26.90;61.10;;;;;;7829365;28;20178;-88
2023/06/11 17:07:57;;;;;;;7.55;6.05;;;26.90;61.60;;;;;;7810639;28;20228;-90
2023/06/11 17:11:42;;;;;;;7.80;5.80;;;26.90;61.40;;;;;;7815811;28;20194;-89
2023/06/11 17:15:28;;;;;;;7.88;5.70;;;26.90;62.10;;;;;;7819139;28;20190;-89
2023/06/11 17:19:13;;;;;;;6.90;5.40;;;26.80;62.20;;;;;;7841244;28;20206;-90
2023/06/11 17:23:00;;;;;;;7.65;5.80;;;26.80;61.80;;;;;;7844383;28;20259;-90
2023/06/11 17:26:45;;;;;;;8.02;5.53;;;26.80;62.00;;;;;;7843387;28;20272;-90
2023/06/11 17:30:31;;;;;;;6.68;5.97;;;26.80;62.10;;;;;;7842356;28;20733;-90
2023/06/11 17:34:17;;;;;;;6.85;5.95;;;26.80;62.20;;;;;;7843704;28;20253;-90
2023/06/11 17:38:02;;;;;;;7.13;5.20;;;26.80;61.80;;;;;;7830824;28;20218;-89
2023/06/11 17:41:48;;;;;;;6.65;5.35;;;26.70;62.10;;;;;;7832183;28;20562;-89
2023/06/11 17:45:34;;;;;;;5.90;5.28;;;26.70;62.50;;;;;;7840404;28;20182;-88
2023/06/11 17:49:19;;;;;;;5.43;4.85;;;26.70;62.50;;;;;;7840529;28;20189;-86
2023/06/11 17:53:06;;;;;;;8.10;4.95;;;26.80;63.40;;;;;;7839761;28;20209;-90
2023/06/11 17:56:52;;;;;;;5.72;4.93;;;26.60;62.80;;;;;;7862428;28;20198;-89
2023/06/11 18:00:37;;;;;;;5.53;4.93;;;26.60;63.70;;;;;;7856508;28;20271;-89
2023/06/11 18:04:23;;;;;;;9.70;5.60;;;26.60;62.90;;;;;;7842937;28;20190;-88
2023/06/11 18:08:09;;;;;;;9.95;5.38;;;26.60;63.80;;;;;;7840140;28;20174;-90
2023/06/11 18:11:54;;;;;;;7.20;4.82;;;26.60;64.20;;;;;;7840607;28;20202;-90
2023/06/11 18:15:41;;;;;;;7.47;4.80;;;26.60;63.80;;;;;;7840177;28;20227;-89
2023/06/11 18:19:26;;;;;;;5.68;4.75;;;26.50;64.80;;;;;;7841659;28;20169;-89
2023/06/11 18:23:12;;;;;;;4.68;4.18;;;26.50;63.90;;;;;;7842326;28;20216;-89
2023/06/11 18:26:58;;;;;;;8.23;4.60;;;26.50;65.00;;;;;;7839617;28;20193;-90
2023/06/11 18:30:43;;;;;;;8.90;4.88;;;26.50;65.80;;;;;;7839620;28;20266;-89
2023/06/11 18:34:29;;;;;;;7.75;4.70;;;26.50;66.00;;;;;;7815009;28;20183;-90
2023/06/11 18:38:15;;;;;;;7.72;4.47;;;26.50;66.50;;;;;;7808329;28;20245;-90
2023/06/11 18:42:11;;;;;;;9.57;4.35;;;26.50;66.40;;;;;;7808699;28;20198;-90
2023/06/11 18:45:58;;;;;;;7.72;4.63;;;26.50;67.00;;;;;;7831733;28;20521;-90
2023/06/11 18:49:43;;;;;;;11.40;4.97;;;26.40;68.00;;;;;;7838781;28;20213;-89
2023/06/11 18:53:29;;;;;;;7.85;4.85;;;26.40;68.40;;;;;;7854261;28;20212;-89
2023/06/11 18:57:18;;;;;;;17.13;6.05;;;26.40;69.30;;;;;;7850280;28;20205;-90
2023/06/11 19:01:03;;;;;;;10.93;4.75;;;26.30;70.30;;;;;;7842336;28;20219;-90
2023/06/11 19:04:49;;;;;;;8.93;4.70;;;26.30;70.90;;;;;;7838290;28;20186;-89
2023/06/11 19:08:35;;;;;;;5.97;4.47;;;26.20;71.20;;;;;;7838889;28;20575;-85
2023/06/11 19:12:20;;;;;;;7.72;4.97;;;26.20;71.40;;;;;;7825393;28;20646;-85
2023/06/11 19:16:06;;;;;;;9.27;5.15;;;26.10;71.00;;;;;;7837833;28;20196;-86
2023/06/11 19:19:52;;;;;;;11.95;4.72;;;25.90;70.10;;;;;;7838184;28;20182;-86
2023/06/11 19:23:37;;;;;;;16.00;4.63;;;25.80;70.90;;;;;;7836562;28;20301;-85
2023/06/11 19:27:28;;;;;;;6.30;4.43;;;25.70;71.50;;;;;;7838401;28;20178;-89
2023/06/11 19:31:13;;;;;;;8.25;4.80;;;25.50;70.80;;;;;;7837306;28;20212;-90
2023/06/11 19:34:59;;;;;;;5.57;5.07;;;25.50;70.70;;;;;;7838671;28;20685;-89
2023/06/11 19:38:44;;;;;;;6.15;4.82;;;25.30;71.00;;;;;;7856237;28;20257;-90
2023/06/11 19:42:30;;;;;;;5.78;4.13;;;25.20;70.20;;;;;;7858102;28;20206;-89